createdAt,value
2019-05-07T00:01:17.319Z,53.44
2019-05-07T00:03:46.504Z,53.50
2019-05-07T00:06:15.619Z,53.40
2019-05-07T00:08:45.150Z,53.37
2019-05-07T00:11:14.357Z,53.31
2019-05-07T00:13:44.452Z,53.38
2019-05-07T00:16:13.724Z,53.40
2019-05-07T00:18:43.103Z,53.23
2019-05-07T00:21:12.671Z,53.19
2019-05-07T00:23:43.286Z,53.25
2019-05-07T00:26:13.335Z,53.25
2019-05-07T00:28:43.410Z,53.31
2019-05-07T00:31:12.573Z,53.39
2019-05-07T00:33:43.296Z,53.33
2019-05-07T00:36:33.777Z,53.38
2019-05-07T00:39:14.890Z,53.28
2019-05-07T00:41:52.106Z,53.26
2019-05-07T00:44:22.109Z,53.23
2019-05-07T00:46:52.557Z,53.23
2019-05-07T00:49:23.446Z,53.31
2019-05-07T00:51:52.557Z,53.29
2019-05-07T00:54:23.030Z,53.22
2019-05-07T00:56:52.284Z,53.20
2019-05-07T00:59:22.532Z,53.22
2019-05-07T01:01:52.805Z,53.24
2019-05-07T01:04:22.889Z,53.18
2019-05-07T01:06:53.233Z,53.15
2019-05-07T01:09:22.998Z,53.14
2019-05-07T01:11:52.522Z,53.26
2019-05-07T01:14:22.858Z,53.21
2019-05-07T01:16:52.896Z,53.23
2019-05-07T01:19:22.144Z,53.21
2019-05-07T01:21:52.524Z,53.29
2019-05-07T01:24:23.318Z,53.24
2019-05-07T01:26:53.061Z,53.24
2019-05-07T01:29:22.675Z,53.20
2019-05-07T01:32:00.295Z,53.22
2019-05-07T01:34:54.311Z,53.00
2019-05-07T01:37:23.280Z,52.95
2019-05-07T01:39:53.047Z,53.10
2019-05-07T01:42:22.319Z,53.09
2019-05-07T01:44:52.848Z,53.07
2019-05-07T01:47:23.732Z,53.14
2019-05-07T01:49:55.198Z,53.17
2019-05-07T01:52:23.749Z,53.17
2019-05-07T01:54:52.856Z,53.15
2019-05-07T01:57:23.175Z,53.11
2019-05-07T01:59:52.873Z,53.28
2019-05-07T02:02:32.114Z,53.22
2019-05-07T02:05:20.122Z,53.12
2019-05-07T02:07:54.231Z,53.14
2019-05-07T02:10:31.940Z,53.16
2019-05-07T02:13:02.312Z,53.12
2019-05-07T02:15:32.277Z,52.93
2019-05-07T02:18:01.965Z,52.97
2019-05-07T02:20:32.124Z,52.97
2019-05-07T02:23:02.786Z,52.90
2019-05-07T02:25:32.713Z,53.14
2019-05-07T02:28:02.312Z,53.19
2019-05-07T02:30:34.540Z,53.26
2019-05-07T02:33:03.802Z,53.23
2019-05-07T02:35:35.879Z,53.33
2019-05-07T02:38:17.763Z,53.38
2019-05-07T02:40:54.038Z,53.31
2019-05-07T02:43:23.046Z,53.31
2019-05-07T02:46:17.494Z,53.34
2019-05-07T02:48:34.586Z,53.44
2019-05-07T02:51:09.273Z,53.56
2019-05-07T02:54:03.344Z,53.58
2019-05-07T02:56:33.340Z,53.75
2019-05-07T02:59:04.048Z,53.95
2019-05-07T03:01:33.618Z,54.08
2019-05-07T03:04:03.748Z,54.09
2019-05-07T03:06:33.981Z,53.91
2019-05-07T03:09:03.545Z,53.83
2019-05-07T03:11:34.045Z,53.81
2019-05-07T03:14:03.467Z,53.78
2019-05-07T03:16:43.755Z,53.92
2019-05-07T03:19:04.197Z,54.04
2019-05-07T03:21:53.703Z,54.16
2019-05-07T03:24:44.239Z,54.29
2019-05-07T03:27:14.344Z,54.48
2019-05-07T03:29:47.262Z,54.30
2019-05-07T03:32:38.115Z,54.26
2019-05-07T03:35:29.190Z,54.20
2019-05-07T03:37:58.488Z,54.21
2019-05-07T03:40:28.486Z,54.19
2019-05-07T03:43:01.600Z,54.08
2019-05-07T03:45:46.107Z,54.07
2019-05-07T03:48:17.240Z,54.09
2019-05-07T03:50:46.306Z,54.31
2019-05-07T03:53:15.422Z,54.38
2019-05-07T03:55:44.986Z,54.30
2019-05-07T03:58:14.845Z,54.37
2019-05-07T04:00:44.731Z,54.49
2019-05-07T04:03:18.761Z,54.54
2019-05-07T04:05:44.663Z,54.66
2019-05-07T04:08:13.792Z,54.92
2019-05-07T04:10:44.310Z,54.96
2019-05-07T04:13:13.883Z,55.01
2019-05-07T04:15:44.010Z,55.17
2019-05-07T04:18:13.613Z,55.29
2019-05-07T04:20:43.455Z,55.37
2019-05-07T04:23:13.862Z,55.33
2019-05-07T04:25:53.034Z,55.18
2019-05-07T04:28:34.868Z,55.24
2019-05-07T04:31:04.211Z,55.18
2019-05-07T04:33:43.667Z,55.21
2019-05-07T04:36:19.087Z,55.18
2019-05-07T04:38:48.089Z,55.12
2019-05-07T04:41:17.122Z,55.00
2019-05-07T04:43:46.329Z,55.00
2019-05-07T04:46:15.346Z,54.91
2019-05-07T04:48:44.492Z,54.75
2019-05-07T04:51:15.846Z,54.61
2019-05-07T04:53:44.933Z,54.48
2019-05-07T04:56:14.188Z,54.30
2019-05-07T04:58:43.622Z,54.23
2019-05-07T05:01:14.579Z,54.28
2019-05-07T05:03:43.908Z,54.31
2019-05-07T05:06:13.818Z,54.19
2019-05-07T05:08:43.734Z,54.28
2019-05-07T05:11:13.095Z,54.13
2019-05-07T05:13:44.474Z,53.99
2019-05-07T05:16:26.605Z,53.57
2019-05-07T05:18:55.795Z,53.21
2019-05-07T05:21:43.863Z,53.22
2019-05-07T05:24:18.302Z,53.00
2019-05-07T05:26:47.355Z,52.56
2019-05-07T05:29:16.721Z,52.11
2019-05-07T05:31:45.819Z,52.03
2019-05-07T05:34:15.034Z,51.79
2019-05-07T05:36:46.957Z,51.31
2019-05-07T05:39:16.049Z,50.83
2019-05-07T05:41:46.811Z,50.38
2019-05-07T05:44:22.798Z,50.00
2019-05-07T05:46:52.582Z,49.55
2019-05-07T05:49:22.945Z,49.21
2019-05-07T05:51:58.968Z,48.89
2019-05-07T05:54:35.945Z,48.10
2019-05-07T05:57:24.251Z,47.55
2019-05-07T06:00:15.341Z,47.21
2019-05-07T06:02:56.439Z,47.26
2019-05-07T06:05:47.478Z,46.66
2019-05-07T06:08:34.105Z,45.90
2019-05-07T06:11:21.871Z,45.32
2019-05-07T06:14:13.914Z,44.99
2019-05-07T06:16:52.634Z,44.32
2019-05-07T06:19:32.695Z,43.98
2019-05-07T06:22:17.225Z,44.28
2019-05-07T06:24:52.131Z,44.23
2019-05-07T06:27:22.916Z,43.67
2019-05-07T06:29:52.441Z,42.56
2019-05-07T06:32:22.960Z,42.32
2019-05-07T06:34:52.417Z,42.00
2019-05-07T06:37:22.819Z,41.26
2019-05-07T06:40:03.093Z,41.10
2019-05-07T06:42:57.281Z,40.96
2019-05-07T06:45:29.080Z,41.31
2019-05-07T06:47:58.164Z,40.46
2019-05-07T06:50:27.344Z,39.58
2019-05-07T06:52:56.403Z,37.63
2019-05-07T06:55:25.543Z,37.01
2019-05-07T06:57:54.669Z,36.40
2019-05-07T07:00:49.304Z,35.49
2019-05-07T07:03:27.802Z,34.97
2019-05-07T07:06:15.817Z,34.31
2019-05-07T07:08:52.709Z,34.00
2019-05-07T07:11:31.761Z,32.48
2019-05-07T07:14:02.494Z,32.08
2019-05-07T07:16:32.604Z,31.60
2019-05-07T07:19:03.340Z,31.34
2019-05-07T07:21:32.830Z,30.95
2019-05-07T07:24:03.016Z,30.38
2019-05-07T07:26:33.983Z,29.13
2019-05-07T07:29:03.097Z,29.06
2019-05-07T07:31:45.913Z,28.13
2019-05-07T07:34:14.992Z,28.59
2019-05-07T07:37:08.407Z,28.43
2019-05-07T07:39:34.061Z,28.87
2019-05-07T07:42:04.421Z,27.72
2019-05-07T07:44:33.619Z,27.58
2019-05-07T07:47:02.859Z,26.86
2019-05-07T07:49:32.949Z,26.83
2019-05-07T07:52:03.165Z,26.83
2019-05-07T07:54:32.507Z,27.14
2019-05-07T07:57:18.457Z,27.29
2019-05-07T08:00:09.220Z,27.97
2019-05-07T08:02:43.998Z,28.20
2019-05-07T08:05:13.128Z,27.30
2019-05-07T08:07:42.696Z,27.28
2019-05-07T08:10:12.891Z,26.77
2019-05-07T08:12:42.548Z,26.27
2019-05-07T08:15:18.115Z,25.72
2019-05-07T08:17:42.492Z,25.62
2019-05-07T08:20:12.809Z,25.82
2019-05-07T08:22:42.446Z,24.99
2019-05-07T08:25:12.508Z,24.10
2019-05-07T08:27:42.155Z,23.72
2019-05-07T08:30:13.040Z,24.59
2019-05-07T08:32:56.605Z,25.19
2019-05-07T08:35:36.261Z,25.40
2019-05-07T08:38:05.399Z,25.46
2019-05-07T08:40:34.439Z,25.40
2019-05-07T08:43:03.555Z,26.10
2019-05-07T08:46:11.873Z,26.13
2019-05-07T08:48:50.483Z,26.29
2019-05-07T08:51:22.247Z,27.33
2019-05-07T08:54:05.490Z,27.92
2019-05-07T08:56:35.441Z,28.37
2019-05-07T08:59:04.671Z,29.05
2019-05-07T09:01:34.029Z,29.67
2019-05-07T09:04:03.127Z,29.68
2019-05-07T09:06:35.058Z,29.94
2019-05-07T09:09:09.875Z,30.42
2019-05-07T09:11:38.958Z,30.52
2019-05-07T09:14:08.026Z,30.53
2019-05-07T09:16:37.119Z,30.82
2019-05-07T09:19:06.651Z,30.63
2019-05-07T09:21:36.838Z,30.68
2019-05-07T09:24:06.404Z,30.85
2019-05-07T09:26:44.355Z,30.92
2019-05-07T09:29:38.536Z,30.92
2019-05-07T09:32:28.420Z,31.17
2019-05-07T09:34:57.824Z,30.57
2019-05-07T09:37:28.443Z,30.43
2019-05-07T09:39:57.599Z,30.44
2019-05-07T09:42:26.670Z,30.39
2019-05-07T09:44:55.765Z,30.77
2019-05-07T09:47:24.796Z,30.47
2019-05-07T09:50:03.886Z,30.79
2019-05-07T09:52:24.751Z,30.69
2019-05-07T09:54:53.858Z,30.29
2019-05-07T09:57:30.478Z,30.17
2019-05-07T09:59:54.171Z,29.88
2019-05-07T10:02:23.223Z,30.07
2019-05-07T10:04:52.858Z,30.50
2019-05-07T10:07:22.475Z,30.81
2019-05-07T10:09:52.322Z,31.33
2019-05-07T10:12:28.400Z,31.28
2019-05-07T10:14:57.461Z,31.28
2019-05-07T10:17:33.914Z,31.60
2019-05-07T10:20:07.259Z,31.54
2019-05-07T10:22:34.044Z,31.74
2019-05-07T10:25:03.188Z,32.07
2019-05-07T10:27:32.630Z,31.98
2019-05-07T10:30:02.352Z,32.35
2019-05-07T10:32:32.305Z,32.78
2019-05-07T10:35:02.266Z,33.24
2019-05-07T10:37:31.975Z,33.63
2019-05-07T10:40:03.045Z,34.44
2019-05-07T10:42:32.508Z,35.09
2019-05-07T10:45:16.137Z,35.44
2019-05-07T10:47:53.220Z,35.61
2019-05-07T10:50:38.027Z,35.87
2019-05-07T10:52:57.802Z,36.10
2019-05-07T10:55:26.929Z,36.26
2019-05-07T10:57:56.566Z,36.52
2019-05-07T11:00:26.517Z,36.07
2019-05-07T11:02:55.637Z,36.36
2019-05-07T11:05:24.855Z,36.31
2019-05-07T11:07:54.044Z,36.45
2019-05-07T11:10:23.050Z,36.39
2019-05-07T11:12:52.186Z,36.20
2019-05-07T11:15:22.020Z,36.17
2019-05-07T11:18:13.289Z,35.55
2019-05-07T11:20:49.277Z,35.24
2019-05-07T11:23:13.260Z,35.19
2019-05-07T11:25:42.356Z,35.03
2019-05-07T11:28:12.338Z,35.00
2019-05-07T11:30:42.565Z,34.97
2019-05-07T11:33:12.856Z,33.98
2019-05-07T11:35:42.451Z,32.80
2019-05-07T11:38:20.508Z,32.24
2019-05-07T11:40:42.948Z,31.42
2019-05-07T11:43:29.798Z,30.10
2019-05-07T11:46:22.221Z,30.21
2019-05-07T11:49:00.307Z,30.23
2019-05-07T11:51:37.723Z,30.43
2019-05-07T11:54:12.712Z,30.34
2019-05-07T11:56:42.461Z,29.34
2019-05-07T11:59:13.352Z,29.17
2019-05-07T12:01:48.024Z,28.46
2019-05-07T12:04:22.176Z,28.30
2019-05-07T12:06:52.061Z,27.59
2019-05-07T12:09:21.840Z,27.80
2019-05-07T12:11:52.043Z,27.86
2019-05-07T12:14:30.563Z,28.06
2019-05-07T12:16:52.983Z,28.43
2019-05-07T12:19:24.332Z,28.75
2019-05-07T12:21:53.634Z,28.83
2019-05-07T12:24:22.729Z,28.36
2019-05-07T12:26:52.334Z,27.60
2019-05-07T12:29:22.059Z,27.44
2019-05-07T12:32:25.503Z,27.57
2019-05-07T12:34:58.027Z,27.30
2019-05-07T12:37:27.173Z,26.51
2019-05-07T12:39:56.258Z,26.08
2019-05-07T12:46:05.325Z,25.23
2019-05-07T12:48:34.417Z,25.19
2019-05-07T12:51:03.511Z,24.37
2019-05-07T12:53:43.607Z,24.30
2019-05-07T12:56:12.678Z,24.14
2019-05-07T12:58:41.784Z,24.49
2019-05-07T13:01:32.923Z,24.62
2019-05-07T13:04:08.426Z,24.72
2019-05-07T13:06:43.244Z,25.42
2019-05-07T13:09:12.664Z,25.33
2019-05-07T13:11:42.505Z,25.48
2019-05-07T13:14:12.584Z,25.92
2019-05-07T13:16:41.761Z,26.10
2019-05-07T13:19:13.206Z,26.20
2019-05-07T13:21:49.091Z,26.01
2019-05-07T13:24:14.982Z,25.44
2019-05-07T13:26:44.303Z,25.00
2019-05-07T13:29:13.367Z,25.37
2019-05-07T13:31:42.458Z,26.21
2019-05-07T13:34:12.231Z,26.82
2019-05-07T13:36:45.121Z,26.84
2019-05-07T13:42:31.990Z,27.45
2019-05-07T13:45:09.447Z,27.53
2019-05-07T13:47:40.802Z,27.91
2019-05-07T13:50:11.933Z,27.69
2019-05-07T13:52:43.135Z,28.11
2019-05-07T14:00:34.284Z,29.11
2019-05-07T14:03:03.439Z,29.33
2019-05-07T14:05:32.544Z,29.62
2019-05-07T14:08:04.450Z,29.38
2019-05-07T14:10:33.858Z,28.94
2019-05-07T14:13:12.529Z,27.51
2019-05-07T14:15:35.002Z,27.34
2019-05-07T14:18:04.175Z,27.62
2019-05-07T14:20:33.224Z,27.76
2019-05-07T14:23:02.248Z,27.52
2019-05-07T14:25:32.563Z,27.34
2019-05-07T14:28:02.269Z,26.98
2019-05-07T14:30:32.785Z,27.03
2019-05-07T14:33:14.394Z,26.07
2019-05-07T14:35:55.314Z,25.97
2019-05-07T14:38:32.089Z,25.95
2019-05-07T14:41:02.661Z,26.42
2019-05-07T14:43:43.676Z,26.57
2019-05-07T14:46:12.769Z,27.09
2019-05-07T14:48:43.780Z,27.46
2019-05-07T14:51:12.777Z,27.57
2019-05-07T14:53:42.843Z,27.21
2019-05-07T14:56:14.274Z,26.98
2019-05-07T14:58:43.080Z,27.08
2019-05-07T15:01:12.179Z,27.09
2019-05-07T15:03:42.335Z,27.42
2019-05-07T15:06:12.606Z,27.57
2019-05-07T15:08:42.872Z,27.61
2019-05-07T15:13:40.065Z,26.92
2019-05-07T15:16:09.163Z,26.77
2019-05-07T15:18:49.160Z,26.90
2019-05-07T15:21:18.238Z,26.60
2019-05-07T15:23:47.719Z,26.42
2019-05-07T15:26:16.804Z,26.52
2019-05-07T15:28:48.533Z,26.53
2019-05-07T15:31:23.351Z,26.40
2019-05-07T15:33:52.404Z,26.33
2019-05-07T15:36:21.495Z,26.33
2019-05-07T15:38:52.160Z,26.19
2019-05-07T15:41:22.822Z,26.22
2019-05-07T15:43:52.213Z,26.53
2019-05-07T15:46:22.712Z,26.64
2019-05-07T15:48:53.927Z,26.61
2019-05-07T15:51:23.005Z,26.71
2019-05-07T15:53:54.562Z,26.86
2019-05-07T15:56:23.729Z,27.00
2019-05-07T15:58:52.852Z,26.83
2019-05-07T16:01:22.279Z,27.11
2019-05-07T16:03:54.712Z,27.03
2019-05-07T16:06:22.384Z,26.93
2019-05-07T16:08:57.946Z,27.21
2019-05-07T16:11:26.986Z,27.23
2019-05-07T16:14:14.673Z,27.18
2019-05-07T16:16:46.595Z,27.21
2019-05-07T16:19:29.042Z,27.39
2019-05-07T16:22:04.320Z,27.46
2019-05-07T16:24:33.465Z,27.47
2019-05-07T16:27:05.141Z,27.82
2019-05-07T16:29:35.666Z,27.84
2019-05-07T16:32:04.093Z,27.97
2019-05-07T16:34:33.153Z,28.10
2019-05-07T16:37:06.807Z,28.02
2019-05-07T16:39:32.974Z,28.44
2019-05-07T16:42:02.008Z,28.84
2019-05-07T16:44:33.115Z,29.04
2019-05-07T16:47:02.787Z,29.26
2019-05-07T16:49:32.662Z,29.55
2019-05-07T16:52:02.810Z,29.76
2019-05-07T16:54:35.124Z,29.75
2019-05-07T16:57:22.176Z,29.79
2019-05-07T16:59:52.209Z,29.97
2019-05-07T17:02:25.780Z,30.05
2019-05-07T17:05:12.734Z,30.29
2019-05-07T17:07:48.489Z,30.30
2019-05-07T17:10:18.467Z,30.54
2019-05-07T17:12:47.787Z,30.61
2019-05-07T17:15:17.093Z,30.68
2019-05-07T17:17:46.277Z,30.79
2019-05-07T17:20:15.450Z,30.78
2019-05-07T17:22:44.479Z,31.11
2019-05-07T17:25:33.276Z,31.04
2019-05-07T17:28:02.871Z,31.06
2019-05-07T17:30:32.115Z,31.02
2019-05-07T17:33:01.929Z,31.34
2019-05-07T17:35:34.067Z,31.32
2019-05-07T17:38:08.977Z,31.50
2019-05-07T17:40:32.462Z,31.47
2019-05-07T17:43:03.194Z,31.55
2019-05-07T17:45:33.048Z,31.74
2019-05-07T17:48:03.153Z,31.90
2019-05-07T17:50:38.596Z,31.90
2019-05-07T17:53:07.668Z,32.97
2019-05-07T17:55:36.678Z,32.62
2019-05-07T17:58:05.730Z,32.72
2019-05-07T18:00:34.724Z,32.28
2019-05-07T18:03:15.441Z,32.17
2019-05-07T18:05:44.498Z,32.27
2019-05-07T18:08:13.512Z,32.38
2019-05-07T18:10:42.696Z,33.02
2019-05-07T18:13:12.029Z,32.96
2019-05-07T18:15:42.768Z,32.91
2019-05-07T18:18:12.757Z,33.11
2019-05-07T18:20:42.303Z,33.30
2019-05-07T18:23:16.718Z,33.42
2019-05-07T18:25:42.875Z,33.25
2019-05-07T18:28:12.516Z,33.35
2019-05-07T18:30:41.613Z,33.55
2019-05-07T18:33:28.382Z,33.50
2019-05-07T18:35:57.520Z,33.59
2019-05-07T18:38:26.626Z,33.93
2019-05-07T18:40:55.665Z,34.17
2019-05-07T18:43:24.762Z,34.07
2019-05-07T18:45:53.801Z,34.10
2019-05-07T18:48:22.916Z,34.31
2019-05-07T18:50:52.280Z,34.44
2019-05-07T18:53:22.685Z,34.52
2019-05-07T18:55:51.877Z,34.73
2019-05-07T18:58:22.448Z,35.02
2019-05-07T19:00:55.065Z,35.23
2019-05-07T19:03:25.443Z,35.43
2019-05-07T19:05:54.770Z,35.72
2019-05-07T19:08:23.912Z,36.00
2019-05-07T19:10:54.797Z,36.17
2019-05-07T19:13:23.848Z,36.41
2019-05-07T19:15:56.373Z,36.73
2019-05-07T19:18:23.915Z,36.91
2019-05-07T19:20:54.121Z,37.17
2019-05-07T19:23:23.308Z,37.28
2019-05-07T19:25:55.148Z,37.48
2019-05-07T19:28:24.232Z,37.68
2019-05-07T19:30:53.357Z,37.84
2019-05-07T19:33:26.808Z,38.24
2019-05-07T19:35:53.603Z,38.55
2019-05-07T19:38:22.697Z,38.68
2019-05-07T19:40:52.812Z,38.86
2019-05-07T19:43:22.108Z,38.98
2019-05-07T19:45:52.366Z,39.17
2019-05-07T19:48:23.137Z,39.58
2019-05-07T19:50:52.850Z,39.74
2019-05-07T19:53:23.521Z,39.88
2019-05-07T19:56:09.151Z,40.11
2019-05-07T19:58:38.245Z,40.29
2019-05-07T20:01:08.671Z,40.48
2019-05-07T20:03:37.783Z,40.71
2019-05-07T20:06:06.847Z,40.53
2019-05-07T20:08:35.996Z,40.73
2019-05-07T20:11:17.075Z,40.56
2019-05-07T20:13:46.142Z,40.63
2019-05-07T20:16:18.856Z,40.49
2019-05-07T20:18:48.131Z,40.35
2019-05-07T20:21:18.038Z,40.40
2019-05-07T20:23:47.160Z,40.26
2019-05-07T20:26:16.336Z,40.27
2019-05-07T20:28:45.513Z,40.14
2019-05-07T20:31:14.757Z,40.20
2019-05-07T20:33:43.939Z,40.13
2019-05-07T20:36:13.645Z,40.16
2019-05-07T20:38:42.846Z,40.31
2019-05-07T20:41:12.909Z,40.36
2019-05-07T20:43:42.976Z,40.47
2019-05-07T20:46:12.178Z,40.56
2019-05-07T20:48:42.335Z,40.76
2019-05-07T20:51:12.408Z,41.14
2019-05-07T20:53:59.430Z,41.40
2019-05-07T20:56:32.261Z,41.37
2019-05-07T20:59:03.000Z,41.63
2019-05-07T21:01:32.953Z,41.72
2019-05-07T21:04:02.300Z,41.90
2019-05-07T21:06:32.305Z,42.10
2019-05-07T21:09:01.521Z,42.24
2019-05-07T21:11:32.373Z,42.42
2019-05-07T21:14:03.250Z,42.59
2019-05-07T21:16:32.963Z,42.93
2019-05-07T21:19:02.348Z,42.93
2019-05-07T21:21:32.694Z,43.09
2019-05-07T21:24:02.221Z,43.40
2019-05-07T21:26:32.787Z,43.56
2019-05-07T21:29:02.965Z,43.72
2019-05-07T21:31:32.474Z,43.87
2019-05-07T21:34:03.277Z,43.87
2019-05-07T21:36:32.615Z,44.09
2019-05-07T21:39:02.371Z,44.24
2019-05-07T21:41:33.450Z,44.31
2019-05-07T21:44:02.465Z,44.38
2019-05-07T21:46:32.941Z,44.47
2019-05-07T21:49:02.731Z,44.55
2019-05-07T21:51:32.052Z,44.41
2019-05-07T21:54:23.675Z,44.52
2019-05-07T21:57:12.648Z,44.52
2019-05-07T21:59:43.186Z,44.49
2019-05-07T22:02:22.779Z,44.70
2019-05-07T22:04:52.916Z,44.81
2019-05-07T22:07:22.817Z,44.96
2019-05-07T22:09:52.352Z,44.95
2019-05-07T22:12:22.909Z,44.95
2019-05-07T22:14:52.000Z,45.09
2019-05-07T22:17:21.919Z,45.23
2019-05-07T22:19:52.497Z,45.35
2019-05-07T22:22:24.021Z,45.38
2019-05-07T22:24:53.131Z,45.20
2019-05-07T22:27:22.273Z,44.73
2019-05-07T22:29:52.737Z,44.48
2019-05-07T22:32:38.319Z,44.29
2019-05-07T22:35:19.860Z,44.04
2019-05-07T22:37:48.960Z,44.03
2019-05-07T22:40:18.092Z,43.94
2019-05-07T22:42:47.122Z,43.99
2019-05-07T22:45:16.138Z,44.22
2019-05-07T22:47:45.124Z,44.32
2019-05-07T22:50:14.326Z,44.42
2019-05-07T22:52:43.463Z,44.49
2019-05-07T22:55:15.538Z,44.70
2019-05-07T22:58:03.622Z,44.69
2019-05-07T23:00:36.637Z,44.51
2019-05-07T23:03:05.644Z,44.43
2019-05-07T23:05:34.660Z,44.71
2019-05-07T23:08:03.613Z,44.90
2019-05-07T23:10:33.298Z,45.14
2019-05-07T23:13:02.518Z,45.21
2019-05-07T23:15:32.203Z,45.21
2019-05-07T23:18:04.132Z,45.24
2019-05-07T23:20:32.169Z,45.26
2019-05-07T23:23:01.960Z,45.31
2019-05-07T23:25:32.237Z,45.54
2019-05-07T23:28:04.948Z,45.38
2019-05-07T23:30:33.103Z,45.29
2019-05-07T23:33:02.545Z,45.16
2019-05-07T23:35:32.830Z,44.73
2019-05-07T23:38:02.565Z,45.09
2019-05-07T23:41:01.984Z,44.80
2019-05-07T23:43:30.465Z,45.17
2019-05-07T23:45:59.495Z,44.56
2019-05-07T23:48:28.518Z,44.22
2019-05-07T23:50:57.619Z,44.08
2019-05-07T23:53:26.610Z,43.62
2019-05-07T23:55:55.623Z,43.22
2019-05-07T23:58:24.596Z,43.42
